KOEO/OEO METAR and TAF weather

Enter ICAO airport designator
Station Type Date Time Source
KOEO METAR 2021/04/17 01:15 UTC NOAA

KOEO 170115Z AUTO 00000KT 10SM CLR 10/M03 A3004 RMK AO2 T01031034


Station Type Date Time Source
KOEO Decoded METAR 2021/04/17 01:15 UTC NOAA

Osceola, L O Simenstad Municipal Airport, WI, United States (KOEO) 45-18-31N 092-41-24W
Apr 16, 2021 - 09:15 PM EDT / 2021.04.17 0115 UTC
Wind: Calm:0
Visibility: 10 mile(s):0
Sky conditions: clear
Temperature: 50.5 F (10.3 C)
Dew Point: 25.9 F (-3.4 C)
Relative Humidity: 37%
Pressure (altimeter): 30.04 in. Hg (1017 hPa)
ob: KOEO 170115Z AUTO 00000KT 10SM CLR 10/M03 A3004 RMK AO2 T01031034
cycle: 1

Station Type Date Time Source
KOEO TAF UTC NOAA

Error!

Example: see airport list